sensor_id;sensor_type;location;lat;lon;timestamp;pressure;altitude;pressure_sealevel;temperature;humidity
33697;BME280;20031;43.416;23.232;2022-07-05T00:02:12;99873.28;;;24.68;69.79
33697;BME280;20031;43.416;23.232;2022-07-05T00:04:37;99875.94;;;24.68;69.56
33697;BME280;20031;43.416;23.232;2022-07-05T00:07:03;99875.94;;;24.68;69.11
33697;BME280;20031;43.416;23.232;2022-07-05T00:09:48;99878.06;;;24.66;69.84
33697;BME280;20031;43.416;23.232;2022-07-05T00:12:14;99870.56;;;24.63;69.70
33697;BME280;20031;43.416;23.232;2022-07-05T00:14:41;99874.81;;;24.64;69.76
33697;BME280;20031;43.416;23.232;2022-07-05T00:17:06;99870.25;;;24.60;70.13
33697;BME280;20031;43.416;23.232;2022-07-05T00:19:33;99865.69;;;24.55;70.79
33697;BME280;20031;43.416;23.232;2022-07-05T00:21:58;99856.31;;;24.48;70.75
33697;BME280;20031;43.416;23.232;2022-07-05T00:24:25;99859.47;;;24.45;70.89
33697;BME280;20031;43.416;23.232;2022-07-05T00:26:50;99856.50;;;24.41;71.11
33697;BME280;20031;43.416;23.232;2022-07-05T00:29:16;99864.47;;;24.36;70.92
33697;BME280;20031;43.416;23.232;2022-07-05T00:31:41;99859.03;;;24.31;71.70
33697;BME280;20031;43.416;23.232;2022-07-05T00:34:07;99853.94;;;24.25;71.50
33697;BME280;20031;43.416;23.232;2022-07-05T00:36:32;99860.84;;;24.26;71.38
33697;BME280;20031;43.416;23.232;2022-07-05T00:38:58;99857.63;;;24.24;71.47
33697;BME280;20031;43.416;23.232;2022-07-05T00:41:24;99858.44;;;24.24;71.04
33697;BME280;20031;43.416;23.232;2022-07-05T00:43:58;99860.59;;;24.27;71.69
33697;BME280;20031;43.416;23.232;2022-07-05T00:46:24;99855.25;;;24.27;71.13
33697;BME280;20031;43.416;23.232;2022-07-05T00:48:50;99856.34;;;24.26;70.16
33697;BME280;20031;43.416;23.232;2022-07-05T00:51:15;99856.34;;;24.26;70.14
33697;BME280;20031;43.416;23.232;2022-07-05T00:53:41;99852.59;;;24.27;69.41
33697;BME280;20031;43.416;23.232;2022-07-05T00:56:09;99858.25;;;24.31;69.63
33697;BME280;20031;43.416;23.232;2022-07-05T00:58:35;99862.25;;;24.33;69.02
33697;BME280;20031;43.416;23.232;2022-07-05T01:01:02;99859.03;;;24.31;68.65
33697;BME280;20031;43.416;23.232;2022-07-05T01:03:28;99857.16;;;24.32;69.03
33697;BME280;20031;43.416;23.232;2022-07-05T01:05:54;99856.91;;;24.33;68.87
33697;BME280;20031;43.416;23.232;2022-07-05T01:08:21;99849.75;;;24.34;68.76
33697;BME280;20031;43.416;23.232;2022-07-05T01:10:47;99852.97;;;24.36;68.23
33697;BME280;20031;43.416;23.232;2022-07-05T01:13:14;99848.47;;;24.36;68.29
33697;BME280;20031;43.416;23.232;2022-07-05T01:15:40;99854.59;;;24.37;68.28
33697;BME280;20031;43.416;23.232;2022-07-05T01:18:07;99845.56;;;24.38;68.04
33697;BME280;20031;43.416;23.232;2022-07-05T01:20:34;99850.06;;;24.37;68.03
33697;BME280;20031;43.416;23.232;2022-07-05T01:23:00;99846.09;;;24.40;68.24
33697;BME280;20031;43.416;23.232;2022-07-05T01:25:29;99842.66;;;24.39;68.10
33697;BME280;20031;43.416;23.232;2022-07-05T01:27:56;99843.19;;;24.41;68.58
33697;BME280;20031;43.416;23.232;2022-07-05T01:30:23;99847.47;;;24.42;69.45
33697;BME280;20031;43.416;23.232;2022-07-05T01:32:49;99846.34;;;24.38;69.65
33697;BME280;20031;43.416;23.232;2022-07-05T01:35:16;99842.59;;;24.34;69.36
33697;BME280;20031;43.416;23.232;2022-07-05T01:37:49;99837.72;;;24.31;69.99
33697;BME280;20031;43.416;23.232;2022-07-05T01:40:16;99828.59;;;24.22;69.84
33697;BME280;20031;43.416;23.232;2022-07-05T01:42:42;99836.25;;;24.19;69.33
33697;BME280;20031;43.416;23.232;2022-07-05T01:45:08;99838.94;;;24.19;70.22
33697;BME280;20031;43.416;23.232;2022-07-05T01:47:40;99843.22;;;24.20;70.17
33697;BME280;20031;43.416;23.232;2022-07-05T01:50:12;99845.88;;;24.20;70.30
33697;BME280;20031;43.416;23.232;2022-07-05T01:52:41;99841.34;;;24.20;70.29
33697;BME280;20031;43.416;23.232;2022-07-05T01:55:07;99845.06;;;24.19;69.97
33697;BME280;20031;43.416;23.232;2022-07-05T01:57:33;99850.91;;;24.16;69.48
33697;BME280;20031;43.416;23.232;2022-07-05T01:59:58;99847.66;;;24.14;69.35
33697;BME280;20031;43.416;23.232;2022-07-05T02:02:23;99853.81;;;24.15;69.43
33697;BME280;20031;43.416;23.232;2022-07-05T02:04:49;99844.47;;;24.13;69.07
33697;BME280;20031;43.416;23.232;2022-07-05T02:07:14;99844.47;;;24.13;69.28
33697;BME280;20031;43.416;23.232;2022-07-05T02:09:40;99846.56;;;24.11;68.47
33697;BME280;20031;43.416;23.232;2022-07-05T02:12:06;99843.09;;;24.10;68.80
33697;BME280;20031;43.416;23.232;2022-07-05T02:14:32;99845.22;;;24.08;68.84
33697;BME280;20031;43.416;23.232;2022-07-05T02:16:57;99845.47;;;24.07;68.64
33697;BME280;20031;43.416;23.232;2022-07-05T02:19:23;99856.91;;;24.07;68.17
33697;BME280;20031;43.416;23.232;2022-07-05T02:21:49;99856.41;;;24.10;68.45
33697;BME280;20031;43.416;23.232;2022-07-05T02:24:14;99858.28;;;24.10;68.50
33697;BME280;20031;43.416;23.232;2022-07-05T02:26:40;99860.94;;;24.10;68.70
33697;BME280;20031;43.416;23.232;2022-07-05T02:29:05;99864.41;;;24.10;67.56
33697;BME280;20031;43.416;23.232;2022-07-05T02:31:31;99863.53;;;24.05;67.62
33697;BME280;20031;43.416;23.232;2022-07-05T02:33:57;99863.00;;;24.03;68.06
33697;BME280;20031;43.416;23.232;2022-07-05T02:36:23;99868.84;;;24.05;68.43
33697;BME280;20031;43.416;23.232;2022-07-05T02:38:48;99865.94;;;24.06;68.21
33697;BME280;20031;43.416;23.232;2022-07-05T02:41:14;99869.94;;;24.04;67.70
33697;BME280;20031;43.416;23.232;2022-07-05T02:43:40;99870.47;;;24.06;68.08
33697;BME280;20031;43.416;23.232;2022-07-05T02:46:07;99865.16;;;24.06;68.16
33697;BME280;20031;43.416;23.232;2022-07-05T02:48:34;99869.44;;;24.07;68.49
33697;BME280;20031;43.416;23.232;2022-07-05T02:51:00;99873.69;;;24.08;68.48
33697;BME280;20031;43.416;23.232;2022-07-05T02:53:25;99880.06;;;24.07;68.71
33697;BME280;20031;43.416;23.232;2022-07-05T02:55:51;99878.72;;;24.04;68.58
33697;BME280;20031;43.416;23.232;2022-07-05T02:58:17;99885.91;;;24.04;68.58
33697;BME280;20031;43.416;23.232;2022-07-05T03:00:46;99896.75;;;24.02;67.99
33697;BME280;20031;43.416;23.232;2022-07-05T03:03:13;99892.66;;;23.90;69.83
33697;BME280;20031;43.416;23.232;2022-07-05T03:05:38;99893.00;;;23.77;70.61
33697;BME280;20031;43.416;23.232;2022-07-05T03:08:04;99903.53;;;23.67;71.69
33697;BME280;20031;43.416;23.232;2022-07-05T03:10:30;99906.06;;;23.62;71.92
33697;BME280;20031;43.416;23.232;2022-07-05T03:12:55;99907.84;;;23.57;72.36
33697;BME280;20031;43.416;23.232;2022-07-05T03:15:21;99914.41;;;23.49;72.54
33697;BME280;20031;43.416;23.232;2022-07-05T03:17:46;99907.91;;;23.40;72.53
33697;BME280;20031;43.416;23.232;2022-07-05T03:20:12;99914.19;;;23.34;73.36
33697;BME280;20031;43.416;23.232;2022-07-05T03:22:37;99926.91;;;23.32;73.16
33697;BME280;20031;43.416;23.232;2022-07-05T03:25:03;99919.50;;;23.34;73.62
33697;BME280;20031;43.416;23.232;2022-07-05T03:27:28;99918.69;;;23.34;73.61
33697;BME280;20031;43.416;23.232;2022-07-05T03:29:54;99900.31;;;23.32;73.69
33697;BME280;20031;43.416;23.232;2022-07-05T03:32:19;99901.16;;;23.33;73.95
33697;BME280;20031;43.416;23.232;2022-07-05T03:34:45;99906.75;;;23.36;73.51
33697;BME280;20031;43.416;23.232;2022-07-05T03:37:10;99902.25;;;23.37;73.23
33697;BME280;20031;43.416;23.232;2022-07-05T03:39:36;99917.69;;;23.40;73.24
33697;BME280;20031;43.416;23.232;2022-07-05T03:42:01;99910.38;;;23.47;73.37
33697;BME280;20031;43.416;23.232;2022-07-05T03:44:27;99907.47;;;23.48;73.03
33697;BME280;20031;43.416;23.232;2022-07-05T03:46:52;99907.53;;;23.53;73.20
33697;BME280;20031;43.416;23.232;2022-07-05T03:49:18;99907.06;;;23.56;73.34
33697;BME280;20031;43.416;23.232;2022-07-05T03:51:43;99901.53;;;23.62;73.51
33697;BME280;20031;43.416;23.232;2022-07-05T03:54:09;99904.06;;;23.69;73.60
33697;BME280;20031;43.416;23.232;2022-07-05T03:56:34;99914.53;;;23.75;72.81
33697;BME280;20031;43.416;23.232;2022-07-05T03:59:00;99913.81;;;23.80;72.93
33697;BME280;20031;43.416;23.232;2022-07-05T04:01:25;99917.00;;;23.82;72.84
33697;BME280;20031;43.416;23.232;2022-07-05T04:03:51;99921.84;;;23.85;72.70
33697;BME280;20031;43.416;23.232;2022-07-05T04:06:17;99920.38;;;23.94;72.64
33697;BME280;20031;43.416;23.232;2022-07-05T04:08:42;99913.22;;;23.99;72.63
33697;BME280;20031;43.416;23.232;2022-07-05T04:11:08;99917.09;;;24.08;72.30
33697;BME280;20031;43.416;23.232;2022-07-05T04:13:35;99921.22;;;24.20;72.49
33697;BME280;20031;43.416;23.232;2022-07-05T04:16:00;99919.47;;;24.31;71.68
33697;BME280;20031;43.416;23.232;2022-07-05T04:18:26;99913.22;;;24.42;71.40
33697;BME280;20031;43.416;23.232;2022-07-05T04:20:51;99917.34;;;24.54;71.28
33697;BME280;20031;43.416;23.232;2022-07-05T04:23:17;99913.53;;;24.71;70.47
33697;BME280;20031;43.416;23.232;2022-07-05T04:25:42;99922.47;;;24.87;69.81
33697;BME280;20031;43.416;23.232;2022-07-05T04:28:08;99914.88;;;25.00;69.65
33697;BME280;20031;43.416;23.232;2022-07-05T04:30:33;99915.81;;;25.16;68.98
33697;BME280;20031;43.416;23.232;2022-07-05T04:32:59;99913.00;;;25.32;68.69
33697;BME280;20031;43.416;23.232;2022-07-05T04:35:24;99918.69;;;25.45;67.90
33697;BME280;20031;43.416;23.232;2022-07-05T04:37:50;99914.50;;;25.59;67.68
33697;BME280;20031;43.416;23.232;2022-07-05T04:40:15;99921.03;;;25.73;67.24
33697;BME280;20031;43.416;23.232;2022-07-05T04:42:41;99916.53;;;25.83;66.82
33697;BME280;20031;43.416;23.232;2022-07-05T04:45:07;99913.41;;;25.96;66.75
33697;BME280;20031;43.416;23.232;2022-07-05T04:47:33;99923.84;;;25.98;66.26
33697;BME280;20031;43.416;23.232;2022-07-05T04:50:03;99926.28;;;26.09;66.66
33697;BME280;20031;43.416;23.232;2022-07-05T04:52:29;99928.69;;;26.16;66.20
33697;BME280;20031;43.416;23.232;2022-07-05T04:54:54;99924.97;;;26.17;65.67
33697;BME280;20031;43.416;23.232;2022-07-05T04:57:20;99935.94;;;26.25;66.52
33697;BME280;20031;43.416;23.232;2022-07-05T04:59:45;99935.22;;;26.39;65.51
33697;BME280;20031;43.416;23.232;2022-07-05T05:02:11;99938.97;;;26.48;65.22
33697;BME280;20031;43.416;23.232;2022-07-05T05:04:36;99938.97;;;26.48;65.39
33697;BME280;20031;43.416;23.232;2022-07-05T05:07:02;99945.44;;;26.67;64.84
33697;BME280;20031;43.416;23.232;2022-07-05T05:09:28;99949.47;;;26.74;64.13
33697;BME280;20031;43.416;23.232;2022-07-05T05:11:53;99944.41;;;26.83;63.98
33697;BME280;20031;43.416;23.232;2022-07-05T05:14:19;99945.22;;;26.88;63.51
33697;BME280;20031;43.416;23.232;2022-07-05T05:16:44;99941.22;;;26.91;63.53
33697;BME280;20031;43.416;23.232;2022-07-05T05:19:10;99944.19;;;27.04;63.66
33697;BME280;20031;43.416;23.232;2022-07-05T05:21:36;99946.59;;;27.26;62.92
33697;BME280;20031;43.416;23.232;2022-07-05T05:24:01;99938.28;;;27.27;61.96
33697;BME280;20031;43.416;23.232;2022-07-05T05:26:27;99934.81;;;27.31;62.56
33697;BME280;20031;43.416;23.232;2022-07-05T05:28:52;99931.31;;;27.46;61.96
33697;BME280;20031;43.416;23.232;2022-07-05T05:31:18;99939.63;;;27.59;61.95
33697;BME280;20031;43.416;23.232;2022-07-05T05:33:44;99930.47;;;27.70;61.49
33697;BME280;20031;43.416;23.232;2022-07-05T05:36:10;99930.47;;;27.75;61.24
33697;BME280;20031;43.416;23.232;2022-07-05T05:38:36;99937.94;;;27.83;61.24
33697;BME280;20031;43.416;23.232;2022-07-05T05:41:01;99929.63;;;27.89;60.49
33697;BME280;20031;43.416;23.232;2022-07-05T05:43:27;99937.63;;;27.99;62.03
33697;BME280;20031;43.416;23.232;2022-07-05T05:45:53;99929.84;;;28.08;62.21
33697;BME280;20031;43.416;23.232;2022-07-05T05:48:19;99933.06;;;28.15;62.03
33697;BME280;20031;43.416;23.232;2022-07-05T05:50:45;99932.97;;;28.34;61.54
33697;BME280;20031;43.416;23.232;2022-07-05T05:53:11;99934.53;;;28.40;61.04
33697;BME280;20031;43.416;23.232;2022-07-05T05:55:36;99936.66;;;28.43;60.85
33697;BME280;20031;43.416;23.232;2022-07-05T05:58:16;99938.44;;;28.58;60.79
33697;BME280;20031;43.416;23.232;2022-07-05T06:00:42;99943.50;;;28.64;60.14
33697;BME280;20031;43.416;23.232;2022-07-05T06:03:09;99937.03;;;28.65;59.53
33697;BME280;20031;43.416;23.232;2022-07-05T06:05:34;99943.00;;;28.57;60.06
33697;BME280;20031;43.416;23.232;2022-07-05T06:08:00;99935.44;;;28.74;60.41
33697;BME280;20031;43.416;23.232;2022-07-05T06:10:30;99941.44;;;28.94;59.92
33697;BME280;20031;43.416;23.232;2022-07-05T06:12:58;99945.19;;;28.93;60.13
33697;BME280;20031;43.416;23.232;2022-07-05T06:15:23;99944.34;;;28.98;59.40
33697;BME280;20031;43.416;23.232;2022-07-05T06:17:49;99930.41;;;29.01;59.56
33697;BME280;20031;43.416;23.232;2022-07-05T06:20:21;99937.84;;;29.09;59.21
33697;BME280;20031;43.416;23.232;2022-07-05T06:22:47;99937.97;;;29.27;58.67
33697;BME280;20031;43.416;23.232;2022-07-05T06:25:13;99944.34;;;29.36;58.88
33697;BME280;20031;43.416;23.232;2022-07-05T06:27:45;99942.84;;;29.53;58.04
33697;BME280;20031;43.416;23.232;2022-07-05T06:30:14;99939.59;;;29.56;57.47
33697;BME280;20031;43.416;23.232;2022-07-05T06:32:42;99936.34;;;29.59;56.97
33697;BME280;20031;43.416;23.232;2022-07-05T06:35:08;99940.59;;;29.60;57.00
33697;BME280;20031;43.416;23.232;2022-07-05T06:40:16;99943.16;;;29.98;56.52
33697;BME280;20031;43.416;23.232;2022-07-05T06:42:42;99939.63;;;30.03;56.10
33697;BME280;20031;43.416;23.232;2022-07-05T06:45:08;99937.56;;;29.95;56.11
33697;BME280;20031;43.416;23.232;2022-07-05T06:47:34;99942.22;;;30.13;56.48
33697;BME280;20031;43.416;23.232;2022-07-05T06:50:00;99943.06;;;30.27;55.51
33697;BME280;20031;43.416;23.232;2022-07-05T06:52:28;99943.75;;;30.19;55.22
33697;BME280;20031;43.416;23.232;2022-07-05T06:54:54;99949.00;;;30.29;54.87
33697;BME280;20031;43.416;23.232;2022-07-05T06:57:20;99939.41;;;30.41;54.11
33697;BME280;20031;43.416;23.232;2022-07-05T06:59:46;99940.81;;;30.39;54.40
33697;BME280;20031;43.416;23.232;2022-07-05T07:02:11;99938.28;;;30.47;54.71
33697;BME280;20031;43.416;23.232;2022-07-05T07:04:37;99938.03;;;30.43;54.17
33697;BME280;20031;43.416;23.232;2022-07-05T07:07:02;99937.16;;;30.48;54.61
33697;BME280;20031;43.416;23.232;2022-07-05T07:09:28;99935.50;;;30.70;54.79
33697;BME280;20031;43.416;23.232;2022-07-05T07:11:53;99931.88;;;30.98;54.79
33697;BME280;20031;43.416;23.232;2022-07-05T07:14:19;99925.91;;;31.01;53.00
33697;BME280;20031;43.416;23.232;2022-07-05T07:16:44;99936.72;;;31.14;53.86
33697;BME280;20031;43.416;23.232;2022-07-05T07:19:10;99928.00;;;31.36;53.92
33697;BME280;20031;43.416;23.232;2022-07-05T07:21:35;99931.56;;;31.49;52.97
33697;BME280;20031;43.416;23.232;2022-07-05T07:24:01;99920.28;;;31.61;52.44
33697;BME280;20031;43.416;23.232;2022-07-05T07:26:26;99929.38;;;31.65;50.88
33697;BME280;20031;43.416;23.232;2022-07-05T07:28:52;99930.09;;;31.84;51.53
33697;BME280;20031;43.416;23.232;2022-07-05T07:31:17;99922.13;;;32.05;51.26
33697;BME280;20031;43.416;23.232;2022-07-05T07:33:43;99920.63;;;31.99;50.11
33697;BME280;20031;43.416;23.232;2022-07-05T07:36:08;99928.09;;;31.89;49.94
33697;BME280;20031;43.416;23.232;2022-07-05T07:38:33;99920.31;;;32.01;50.37
33697;BME280;20031;43.416;23.232;2022-07-05T07:40:59;99918.03;;;32.08;50.65
33697;BME280;20031;43.416;23.232;2022-07-05T07:43:26;99906.41;;;32.21;50.86
33697;BME280;20031;43.416;23.232;2022-07-05T07:45:52;99915.06;;;32.45;51.11
33697;BME280;20031;43.416;23.232;2022-07-05T07:48:17;99911.06;;;32.55;50.83
33697;BME280;20031;43.416;23.232;2022-07-05T07:50:44;99913.72;;;32.69;50.56
33697;BME280;20031;43.416;23.232;2022-07-05T07:53:09;99903.97;;;32.81;50.10
33697;BME280;20031;43.416;23.232;2022-07-05T07:55:35;99912.94;;;32.90;49.56
33697;BME280;20031;43.416;23.232;2022-07-05T07:58:00;99908.53;;;32.94;48.72
33697;BME280;20031;43.416;23.232;2022-07-05T08:00:26;99911.31;;;33.03;48.53
33697;BME280;20031;43.416;23.232;2022-07-05T08:02:51;99909.66;;;33.15;48.31
33697;BME280;20031;43.416;23.232;2022-07-05T08:05:17;99905.81;;;33.07;48.03
33697;BME280;20031;43.416;23.232;2022-07-05T08:07:43;99900.53;;;33.33;48.55
33697;BME280;20031;43.416;23.232;2022-07-05T08:10:08;99904.09;;;33.42;48.03
33697;BME280;20031;43.416;23.232;2022-07-05T08:12:34;99900.31;;;33.51;46.74
33697;BME280;20031;43.416;23.232;2022-07-05T08:14:59;99907.88;;;33.71;47.30
33697;BME280;20031;43.416;23.232;2022-07-05T08:17:25;99901.84;;;33.74;46.38
33697;BME280;20031;43.416;23.232;2022-07-05T08:19:50;99896.28;;;33.70;45.86
33697;BME280;20031;43.416;23.232;2022-07-05T08:22:35;99901.88;;;33.82;46.10
33697;BME280;20031;43.416;23.232;2022-07-05T08:25:00;99902.22;;;33.89;45.57
33697;BME280;20031;43.416;23.232;2022-07-05T08:44:50;99887.28;;;34.64;43.84
33697;BME280;20031;43.416;23.232;2022-07-05T08:47:16;99885.22;;;34.69;43.53
33697;BME280;20031;43.416;23.232;2022-07-05T08:49:43;99883.28;;;34.62;43.81
33697;BME280;20031;43.416;23.232;2022-07-05T08:52:11;99877.09;;;34.69;43.06
33697;BME280;20031;43.416;23.232;2022-07-05T08:54:38;99881.22;;;34.59;43.06
33697;BME280;20031;43.416;23.232;2022-07-05T08:57:04;99876.13;;;34.74;43.74
33697;BME280;20031;43.416;23.232;2022-07-05T08:59:30;99873.38;;;35.16;43.58
33697;BME280;20031;43.416;23.232;2022-07-05T09:01:56;99876.16;;;35.36;42.77
33697;BME280;20031;43.416;23.232;2022-07-05T09:04:23;99871.41;;;35.42;41.60
33697;BME280;20031;43.416;23.232;2022-07-05T09:06:53;99866.59;;;35.47;43.52
33697;BME280;20031;43.416;23.232;2022-07-05T09:09:21;99862.84;;;35.68;42.36
33697;BME280;20031;43.416;23.232;2022-07-05T09:11:47;99863.56;;;35.86;42.59
33697;BME280;20031;43.416;23.232;2022-07-05T09:14:24;99859.53;;;35.92;42.26
33697;BME280;20031;43.416;23.232;2022-07-05T09:16:50;99861.25;;;35.96;41.73
33697;BME280;20031;43.416;23.232;2022-07-05T09:19:16;99858.59;;;35.79;41.32
33697;BME280;20031;43.416;23.232;2022-07-05T09:21:41;99859.53;;;35.92;41.41
33697;BME280;20031;43.416;23.232;2022-07-05T09:24:12;99856.19;;;36.15;41.43
33697;BME280;20031;43.416;23.232;2022-07-05T09:29:14;99854.63;;;36.34;41.04
33697;BME280;20031;43.416;23.232;2022-07-05T09:31:44;99840.63;;;36.24;40.08
33697;BME280;20031;43.416;23.232;2022-07-05T09:34:15;99835.78;;;36.09;40.42
33697;BME280;20031;43.416;23.232;2022-07-05T09:37:07;99840.56;;;36.12;40.89
33697;BME280;20031;43.416;23.232;2022-07-05T09:42:20;99830.34;;;36.38;39.51
33697;BME280;20031;43.416;23.232;2022-07-05T09:47:18;99822.94;;;36.59;40.29
33697;BME280;20031;43.416;23.232;2022-07-05T09:49:46;99810.66;;;37.05;39.12
33697;BME280;20031;43.416;23.232;2022-07-05T09:52:36;99813.00;;;37.27;38.67
33697;BME280;20031;43.416;23.232;2022-07-05T09:55:15;99813.28;;;37.14;38.79
33697;BME280;20031;43.416;23.232;2022-07-05T09:57:43;99807.91;;;37.26;38.60
33697;BME280;20031;43.416;23.232;2022-07-05T10:00:14;99798.00;;;37.09;38.60
33697;BME280;20031;43.416;23.232;2022-07-05T10:05:14;99788.44;;;37.35;37.88
33697;BME280;20031;43.416;23.232;2022-07-05T10:07:45;99791.34;;;37.54;37.50
33697;BME280;20031;43.416;23.232;2022-07-05T10:10:12;99788.53;;;37.75;37.17
33697;BME280;20031;43.416;23.232;2022-07-05T10:12:39;99788.47;;;38.10;36.55
33697;BME280;20031;43.416;23.232;2022-07-05T10:15:08;99791.53;;;38.09;36.33
33697;BME280;20031;43.416;23.232;2022-07-05T10:17:37;99789.16;;;38.07;35.49
33697;BME280;20031;43.416;23.232;2022-07-05T10:20:11;99778.94;;;38.04;34.88
33697;BME280;20031;43.416;23.232;2022-07-05T10:22:37;99782.19;;;37.82;34.29
33697;BME280;20031;43.416;23.232;2022-07-05T10:25:03;99780.53;;;38.05;34.23
33697;BME280;20031;43.416;23.232;2022-07-05T10:27:30;99774.91;;;38.26;34.19
33697;BME280;20031;43.416;23.232;2022-07-05T10:29:57;99778.09;;;38.28;34.51
33697;BME280;20031;43.416;23.232;2022-07-05T10:32:25;99778.09;;;38.28;34.05
33697;BME280;20031;43.416;23.232;2022-07-05T10:34:53;99779.53;;;38.37;33.90
33697;BME280;20031;43.416;23.232;2022-07-05T10:37:22;99771.00;;;38.50;33.58
33697;BME280;20031;43.416;23.232;2022-07-05T10:39:50;99771.06;;;38.54;32.69
33697;BME280;20031;43.416;23.232;2022-07-05T10:42:16;99762.56;;;38.55;33.03
33697;BME280;20031;43.416;23.232;2022-07-05T10:44:43;99761.50;;;38.60;32.10
33697;BME280;20031;43.416;23.232;2022-07-05T10:47:10;99758.88;;;39.06;32.06
33697;BME280;20031;43.416;23.232;2022-07-05T10:49:36;99753.66;;;39.32;30.77
33697;BME280;20031;43.416;23.232;2022-07-05T10:52:03;99756.03;;;39.33;31.43
33697;BME280;20031;43.416;23.232;2022-07-05T10:54:29;99747.41;;;39.31;31.63
33697;BME280;20031;43.416;23.232;2022-07-05T10:57:23;99743.53;;;39.32;30.75
33697;BME280;20031;43.416;23.232;2022-07-05T11:00:18;99735.09;;;39.37;31.13
33697;BME280;20031;43.416;23.232;2022-07-05T11:02:44;99731.69;;;39.59;28.47
33697;BME280;20031;43.416;23.232;2022-07-05T11:05:16;99729.72;;;39.40;28.60
33697;BME280;20031;43.416;23.232;2022-07-05T11:07:58;99727.34;;;39.39;28.45
33697;BME280;20031;43.416;23.232;2022-07-05T11:10:24;99732.19;;;39.30;28.81
33697;BME280;20031;43.416;23.232;2022-07-05T11:12:50;99723.91;;;39.42;28.37
33697;BME280;20031;43.416;23.232;2022-07-05T11:15:15;99715.88;;;39.49;28.51
33697;BME280;20031;43.416;23.232;2022-07-05T11:17:42;99721.28;;;39.80;28.09
33697;BME280;20031;43.416;23.232;2022-07-05T11:20:16;99711.59;;;39.82;28.21
33697;BME280;20031;43.416;23.232;2022-07-05T11:25:34;99701.66;;;39.93;28.02
33697;BME280;20031;43.416;23.232;2022-07-05T11:28:11;99708.84;;;40.01;27.95
33697;BME280;20031;43.416;23.232;2022-07-05T11:33:44;99700.00;;;39.70;28.04
33697;BME280;20031;43.416;23.232;2022-07-05T11:36:25;99700.09;;;39.92;27.04
33697;BME280;20031;43.416;23.232;2022-07-05T11:39:14;99696.72;;;39.98;25.72
33697;BME280;20031;43.416;23.232;2022-07-05T11:41:46;99694.13;;;40.24;25.66
33697;BME280;20031;43.416;23.232;2022-07-05T11:44:12;99684.41;;;40.27;25.94
33697;BME280;20031;43.416;23.232;2022-07-05T11:46:41;99680.31;;;40.36;26.34
33697;BME280;20031;43.416;23.232;2022-07-05T11:49:07;99676.53;;;40.44;26.49
33697;BME280;20031;43.416;23.232;2022-07-05T11:51:32;99678.13;;;40.45;26.11
33697;BME280;20031;43.416;23.232;2022-07-05T11:53:58;99671.91;;;40.26;26.36
33697;BME280;20031;43.416;23.232;2022-07-05T11:56:24;99666.28;;;40.38;26.65
33697;BME280;20031;43.416;23.232;2022-07-05T11:58:49;99664.78;;;40.40;25.59
33697;BME280;20031;43.416;23.232;2022-07-05T12:01:15;99654.59;;;40.59;25.32
33697;BME280;20031;43.416;23.232;2022-07-05T12:03:40;99653.28;;;40.53;24.95
33697;BME280;20031;43.416;23.232;2022-07-05T12:06:13;99657.53;;;40.96;24.58
33697;BME280;20031;43.416;23.232;2022-07-05T12:08:38;99654.38;;;40.94;24.73
33697;BME280;20031;43.416;23.232;2022-07-05T12:11:04;99645.75;;;40.92;24.40
33697;BME280;20031;43.416;23.232;2022-07-05T12:13:50;99638.56;;;40.58;24.40
33697;BME280;20031;43.416;23.232;2022-07-05T12:16:16;99642.63;;;40.90;24.59
33697;BME280;20031;43.416;23.232;2022-07-05T12:18:53;99636.53;;;41.25;23.98
33697;BME280;20031;43.416;23.232;2022-07-05T12:21:21;99627.84;;;41.46;23.76
33697;BME280;20031;43.416;23.232;2022-07-05T12:23:48;99632.53;;;41.45;24.02
33697;BME280;20031;43.416;23.232;2022-07-05T12:26:18;99633.94;;;41.65;24.27
33697;BME280;20031;43.416;23.232;2022-07-05T12:28:45;99636.25;;;41.34;23.77
33697;BME280;20031;43.416;23.232;2022-07-05T12:33:43;99629.63;;;41.09;24.75
33697;BME280;20031;43.416;23.232;2022-07-05T12:36:14;99626.00;;;41.01;25.26
33697;BME280;20031;43.416;23.232;2022-07-05T12:38:40;99628.31;;;41.25;25.06
33697;BME280;20031;43.416;23.232;2022-07-05T12:41:07;99623.06;;;41.39;24.84
33697;BME280;20031;43.416;23.232;2022-07-05T12:43:33;99617.50;;;41.36;24.97
33697;BME280;20031;43.416;23.232;2022-07-05T12:46:12;99611.63;;;41.34;24.92
33697;BME280;20031;43.416;23.232;2022-07-05T12:48:39;99609.53;;;41.53;25.29
33697;BME280;20031;43.416;23.232;2022-07-05T12:51:06;99608.47;;;41.32;25.13
33697;BME280;20031;43.416;23.232;2022-07-05T12:53:33;99615.47;;;40.78;25.02
33697;BME280;20031;43.416;23.232;2022-07-05T12:56:22;99604.97;;;40.80;25.95
33697;BME280;20031;43.416;23.232;2022-07-05T12:59:09;99598.91;;;41.19;25.46
33697;BME280;20031;43.416;23.232;2022-07-05T13:01:39;99599.13;;;41.07;25.20
33697;BME280;20031;43.416;23.232;2022-07-05T13:06:55;99589.47;;;40.91;25.47
33697;BME280;20031;43.416;23.232;2022-07-05T13:12:18;99592.34;;;40.98;25.83
33697;BME280;20031;43.416;23.232;2022-07-05T13:14:47;99587.09;;;41.11;25.34
33697;BME280;20031;43.416;23.232;2022-07-05T13:17:17;99578.47;;;41.09;25.38
33697;BME280;20031;43.416;23.232;2022-07-05T13:19:45;99576.00;;;41.30;25.74
33697;BME280;20031;43.416;23.232;2022-07-05T13:22:11;99569.84;;;41.37;24.93
33697;BME280;20031;43.416;23.232;2022-07-05T13:24:36;99570.75;;;41.48;25.88
33697;BME280;20031;43.416;23.232;2022-07-05T13:27:03;99566.50;;;41.83;25.21
33697;BME280;20031;43.416;23.232;2022-07-05T13:29:29;99564.13;;;41.78;24.67
33697;BME280;20031;43.416;23.232;2022-07-05T13:31:55;99558.41;;;41.93;24.80
33697;BME280;20031;43.416;23.232;2022-07-05T13:34:21;99559.34;;;42.07;24.54
33697;BME280;20031;43.416;23.232;2022-07-05T13:36:54;99550.97;;;42.33;24.15